createdAt,value
2018-09-26T00:01:23.906Z,66.90
2018-09-26T00:03:57.401Z,67.00
2018-09-26T00:06:27.881Z,67.00
2018-09-26T00:08:58.436Z,67.20
2018-09-26T00:11:59.730Z,67.10
2018-09-26T00:14:30.806Z,67.20
2018-09-26T00:17:01.857Z,67.30
2018-09-26T00:19:32.621Z,67.40
2018-09-26T00:22:03.369Z,67.50
2018-09-26T00:24:33.931Z,67.60
2018-09-26T00:27:04.850Z,67.70
2018-09-26T00:29:35.610Z,67.60
2018-09-26T00:32:06.220Z,67.60
2018-09-26T00:34:36.729Z,67.70
2018-09-26T00:37:28.212Z,67.70
2018-09-26T00:40:00.791Z,67.70
2018-09-26T00:42:31.312Z,67.90
2018-09-26T00:45:01.996Z,68.00
2018-09-26T00:47:32.641Z,67.90
2018-09-26T00:50:03.215Z,68.10
2018-09-26T00:52:33.830Z,68.20
2018-09-26T00:55:05.364Z,68.40
2018-09-26T00:57:35.837Z,68.30
2018-09-26T01:00:06.497Z,68.40
2018-09-26T01:02:37.555Z,68.50
2018-09-26T01:05:08.338Z,68.60
2018-09-26T01:07:39.302Z,68.50
2018-09-26T01:10:09.850Z,68.50
2018-09-26T01:12:40.479Z,68.50
2018-09-26T01:15:10.930Z,68.30
2018-09-26T01:17:41.656Z,68.40
2018-09-26T01:20:12.279Z,68.40
2018-09-26T01:22:43.159Z,68.40
2018-09-26T01:25:13.785Z,68.60
2018-09-26T01:27:44.325Z,68.50
2018-09-26T01:30:15.154Z,68.50
2018-09-26T01:32:45.634Z,68.60
2018-09-26T01:35:16.141Z,68.50
2018-09-26T01:37:46.712Z,68.60
2018-09-26T01:40:17.348Z,69.50
2018-09-26T01:42:47.918Z,68.70
2018-09-26T01:45:18.408Z,69.00
2018-09-26T01:47:49.097Z,68.80
2018-09-26T01:50:19.688Z,69.00
2018-09-26T01:52:50.226Z,68.90
2018-09-26T01:55:20.932Z,69.00
2018-09-26T01:57:51.542Z,69.10
2018-09-26T02:00:22.253Z,69.00
2018-09-26T02:02:52.965Z,69.00
2018-09-26T02:05:23.507Z,69.00
2018-09-26T02:07:53.969Z,69.30
2018-09-26T02:10:24.762Z,69.20
2018-09-26T02:12:55.252Z,69.40
2018-09-26T02:15:26.047Z,69.30
2018-09-26T02:17:56.557Z,69.20
2018-09-26T02:20:27.339Z,69.30
2018-09-26T02:22:57.850Z,69.50
2018-09-26T02:25:28.690Z,69.60
2018-09-26T02:27:59.179Z,69.30
2018-09-26T02:30:30.006Z,69.50
2018-09-26T02:33:00.488Z,69.40
2018-09-26T02:35:31.162Z,69.30
2018-09-26T02:38:01.610Z,69.30
2018-09-26T02:40:32.160Z,69.30
2018-09-26T02:43:02.797Z,69.30
2018-09-26T02:45:33.232Z,69.40
2018-09-26T02:48:05.740Z,69.30
2018-09-26T02:50:36.530Z,69.20
2018-09-26T02:53:07.168Z,69.40
2018-09-26T02:55:37.708Z,69.20
2018-09-26T02:58:08.389Z,69.30
2018-09-26T03:00:39.033Z,69.30
2018-09-26T03:03:09.636Z,69.30
2018-09-26T03:05:40.114Z,69.40
2018-09-26T03:08:11.208Z,69.40
2018-09-26T03:10:42.051Z,69.40
2018-09-26T03:13:12.545Z,69.30
2018-09-26T03:15:43.449Z,69.40
2018-09-26T03:18:13.974Z,69.40
2018-09-26T03:20:44.441Z,69.30
2018-09-26T03:23:14.961Z,69.30
2018-09-26T03:25:45.976Z,69.40
2018-09-26T03:28:16.536Z,69.40
2018-09-26T03:30:47.039Z,69.40
2018-09-26T03:33:17.944Z,69.50
2018-09-26T03:35:48.602Z,69.30
2018-09-26T03:38:19.313Z,69.40
2018-09-26T03:40:49.877Z,69.50
2018-09-26T03:43:20.554Z,69.50
2018-09-26T03:45:51.222Z,69.30
2018-09-26T03:48:22.081Z,69.40
2018-09-26T03:50:52.657Z,69.40
2018-09-26T03:53:23.392Z,69.50
2018-09-26T03:55:54.051Z,69.40
2018-09-26T03:58:24.744Z,69.50
2018-09-26T04:00:55.519Z,69.40
2018-09-26T04:03:26.268Z,69.30
2018-09-26T04:05:56.824Z,69.50
2018-09-26T04:08:27.433Z,69.40
2018-09-26T04:10:58.165Z,69.30
2018-09-26T04:13:33.635Z,69.70
2018-09-26T04:16:09.995Z,69.50
2018-09-26T04:18:40.851Z,69.50
2018-09-26T04:21:11.411Z,69.50
2018-09-26T04:23:41.921Z,69.50
2018-09-26T04:26:12.671Z,69.40
2018-09-26T04:28:43.322Z,69.30
2018-09-26T04:31:13.998Z,69.50
2018-09-26T04:33:44.676Z,69.40
2018-09-26T04:36:15.103Z,69.30
2018-09-26T04:38:45.623Z,69.20
2018-09-26T04:41:15.993Z,69.20
2018-09-26T04:43:46.686Z,69.20
2018-09-26T04:46:17.610Z,69.30
2018-09-26T04:48:48.076Z,69.20
2018-09-26T04:51:18.677Z,69.30
2018-09-26T04:53:49.174Z,69.20
2018-09-26T04:56:19.802Z,69.30
2018-09-26T04:58:50.266Z,69.20
2018-09-26T05:01:20.785Z,69.30
2018-09-26T05:03:51.472Z,69.20
2018-09-26T05:06:21.918Z,69.30
2018-09-26T05:08:52.804Z,69.20
2018-09-26T05:11:23.453Z,69.20
2018-09-26T05:13:54.061Z,69.20
2018-09-26T05:16:24.549Z,69.40
2018-09-26T05:18:55.408Z,69.40
2018-09-26T05:21:26.070Z,69.40
2018-09-26T05:23:56.801Z,69.60
2018-09-26T05:26:27.310Z,69.60
2018-09-26T05:28:59.298Z,69.60
2018-09-26T05:31:31.634Z,69.50
2018-09-26T05:34:06.326Z,69.70
2018-09-26T05:36:38.530Z,69.50
2018-09-26T05:39:13.625Z,69.40
2018-09-26T05:41:46.883Z,69.50
2018-09-26T05:44:18.494Z,69.50
2018-09-26T05:46:51.100Z,69.50
2018-09-26T05:49:24.158Z,69.60
2018-09-26T05:51:58.838Z,69.50
2018-09-26T05:54:33.776Z,69.50
2018-09-26T05:57:06.062Z,69.60
2018-09-26T05:59:37.365Z,70.30
2018-09-26T06:02:10.790Z,69.80
2018-09-26T06:04:49.793Z,69.90
2018-09-26T06:07:23.753Z,69.80
2018-09-26T06:09:57.038Z,69.90
2018-09-26T06:12:30.591Z,70.00
2018-09-26T06:15:02.780Z,69.80
2018-09-26T06:17:35.775Z,70.10
2018-09-26T06:20:06.472Z,69.90
2018-09-26T06:22:37.412Z,70.00
2018-09-26T06:25:08.337Z,70.20
2018-09-26T06:27:39.425Z,70.00
2018-09-26T06:30:10.746Z,69.90
2018-09-26T06:32:41.893Z,70.20
2018-09-26T06:35:13.308Z,70.40
2018-09-26T06:37:43.851Z,70.30
2018-09-26T06:40:14.820Z,70.20
2018-09-26T06:42:45.339Z,70.30
2018-09-26T06:45:16.054Z,70.30
2018-09-26T06:47:46.658Z,70.30
2018-09-26T06:50:17.341Z,70.40
2018-09-26T06:52:48.044Z,70.50
2018-09-26T06:55:18.929Z,70.50
2018-09-26T06:57:49.830Z,70.30
2018-09-26T07:00:20.824Z,70.50
2018-09-26T07:02:51.536Z,70.50
2018-09-26T07:05:22.347Z,70.50
2018-09-26T07:07:52.938Z,70.50
2018-09-26T07:10:23.667Z,70.80
2018-09-26T07:12:54.353Z,70.80
2018-09-26T07:15:25.265Z,70.90
2018-09-26T07:17:56.587Z,70.90
2018-09-26T07:20:27.309Z,71.10
2018-09-26T07:22:57.967Z,71.30
2018-09-26T07:25:28.860Z,71.30
2018-09-26T07:28:00.049Z,71.40
2018-09-26T07:30:30.897Z,71.70
2018-09-26T07:33:01.670Z,71.60
2018-09-26T07:35:32.440Z,71.80
2018-09-26T07:38:03.426Z,71.80
2018-09-26T07:40:34.075Z,71.70
2018-09-26T07:43:04.800Z,71.70
2018-09-26T07:45:35.653Z,71.50
2018-09-26T07:48:06.365Z,71.40
2018-09-26T07:50:36.966Z,71.50
2018-09-26T07:53:07.818Z,71.70
2018-09-26T07:55:38.677Z,71.70
2018-09-26T07:58:09.384Z,72.40
2018-09-26T08:00:40.083Z,72.00
2018-09-26T08:03:10.954Z,72.20
2018-09-26T08:05:41.587Z,72.30
2018-09-26T08:08:12.412Z,72.00
2018-09-26T08:10:43.095Z,72.50
2018-09-26T08:13:13.793Z,72.30
2018-09-26T08:15:44.584Z,72.60
2018-09-26T08:18:15.047Z,72.40
2018-09-26T08:20:45.858Z,72.90
2018-09-26T08:23:16.908Z,72.30
2018-09-26T08:25:47.642Z,73.50
2018-09-26T08:28:18.294Z,72.80
2018-09-26T08:30:48.974Z,72.80
2018-09-26T08:33:19.430Z,73.00
2018-09-26T08:35:50.245Z,73.10
2018-09-26T08:38:21.147Z,73.40
2018-09-26T08:40:51.704Z,73.10
2018-09-26T08:43:23.948Z,73.40
2018-09-26T08:45:54.699Z,73.20
2018-09-26T08:48:26.589Z,73.50
2018-09-26T08:50:58.327Z,73.80
2018-09-26T08:53:29.843Z,73.70
2018-09-26T08:56:01.189Z,73.70
2018-09-26T08:58:31.913Z,73.80
2018-09-26T09:01:02.544Z,73.80
2018-09-26T09:03:33.484Z,73.80
2018-09-26T09:06:04.359Z,73.80
2018-09-26T09:08:35.260Z,73.80
2018-09-26T09:11:06.388Z,73.90
2018-09-26T09:13:37.289Z,74.40
2018-09-26T09:17:11.009Z,74.30
2018-09-26T09:19:41.596Z,73.90
2018-09-26T09:22:12.042Z,74.20
2018-09-26T09:24:42.582Z,74.70
2018-09-26T09:27:13.327Z,74.70
2018-09-26T09:29:44.462Z,74.60
2018-09-26T09:32:15.202Z,74.70
2018-09-26T09:34:46.279Z,75.00
2018-09-26T09:37:17.820Z,74.50
2018-09-26T09:39:48.595Z,74.70
2018-09-26T09:42:19.694Z,74.80
2018-09-26T09:44:50.659Z,74.80
2018-09-26T09:47:21.592Z,75.60
2018-09-26T09:49:52.608Z,75.40
2018-09-26T09:52:23.694Z,74.90
2018-09-26T09:54:54.621Z,75.10
2018-09-26T09:57:25.563Z,75.30
2018-09-26T09:59:56.529Z,75.80
2018-09-26T10:02:27.728Z,75.30
2018-09-26T10:04:58.652Z,75.30
2018-09-26T10:07:29.369Z,75.40
2018-09-26T10:10:00.537Z,75.90
2018-09-26T10:12:31.783Z,75.90
2018-09-26T10:15:04.327Z,75.40
2018-09-26T10:17:35.338Z,75.50
2018-09-26T10:20:06.446Z,75.30
2018-09-26T10:22:37.788Z,76.00
2018-09-26T10:25:08.621Z,75.70
2018-09-26T10:27:39.849Z,75.70
2018-09-26T10:30:10.839Z,76.10
2018-09-26T10:32:49.261Z,75.90
2018-09-26T10:35:25.636Z,75.60
2018-09-26T10:37:56.947Z,75.70
2018-09-26T10:40:27.917Z,75.80
2018-09-26T10:42:58.826Z,76.20
2018-09-26T10:45:29.782Z,76.20
2018-09-26T10:48:00.939Z,76.20
2018-09-26T10:50:32.066Z,76.10
2018-09-26T10:53:03.002Z,76.60
2018-09-26T10:55:33.904Z,76.00
2018-09-26T10:58:05.117Z,76.50
2018-09-26T11:00:35.937Z,76.20
2018-09-26T11:03:07.182Z,76.60
2018-09-26T11:05:38.283Z,76.40
2018-09-26T11:08:09.111Z,76.40
2018-09-26T11:10:40.149Z,76.80
2018-09-26T11:13:11.184Z,76.70
2018-09-26T11:15:42.309Z,76.50
2018-09-26T11:18:13.280Z,77.00
2018-09-26T11:20:44.022Z,76.30
2018-09-26T11:23:14.971Z,76.50
2018-09-26T11:25:46.226Z,76.40
2018-09-26T11:28:17.258Z,76.80
2018-09-26T11:30:48.283Z,76.80
2018-09-26T11:33:19.529Z,76.80
2018-09-26T11:35:50.596Z,77.10
2018-09-26T11:38:21.570Z,77.00
2018-09-26T11:40:52.667Z,78.30
2018-09-26T11:43:23.604Z,77.70
2018-09-26T11:45:55.408Z,77.30
2018-09-26T11:48:26.519Z,77.30
2018-09-26T11:50:57.436Z,77.60
2018-09-26T11:53:29.274Z,77.00
2018-09-26T11:55:59.977Z,77.30
2018-09-26T11:58:30.812Z,77.80
2018-09-26T12:01:02.163Z,77.60
2018-09-26T12:03:33.122Z,77.90
2018-09-26T12:06:04.116Z,77.90
2018-09-26T12:08:34.978Z,78.50
2018-09-26T12:11:06.024Z,77.90
2018-09-26T12:13:36.955Z,77.70
2018-09-26T12:16:08.313Z,77.90
2018-09-26T12:18:39.439Z,79.00
2018-09-26T12:21:10.582Z,78.10
2018-09-26T12:23:41.729Z,78.30
2018-09-26T12:26:12.629Z,79.00
2018-09-26T12:28:43.530Z,78.40
2018-09-26T12:31:14.520Z,77.90
2018-09-26T12:33:45.867Z,78.50
2018-09-26T12:36:16.867Z,78.90
2018-09-26T12:38:47.759Z,78.90
2018-09-26T12:41:19.327Z,79.10
2018-09-26T12:43:50.258Z,79.90
2018-09-26T12:46:21.254Z,79.70
2018-09-26T12:48:51.920Z,79.30
2018-09-26T12:51:23.199Z,79.90
2018-09-26T12:53:54.381Z,80.00
2018-09-26T12:56:25.556Z,80.00
2018-09-26T12:58:56.687Z,80.10
2018-09-26T13:01:38.172Z,79.90
2018-09-26T13:04:18.968Z,80.10
2018-09-26T13:06:51.044Z,80.20
2018-09-26T13:09:22.058Z,80.20
2018-09-26T13:11:53.123Z,80.10
2018-09-26T13:14:23.915Z,79.70
2018-09-26T13:16:55.011Z,80.00
2018-09-26T13:19:25.934Z,80.00
2018-09-26T13:21:57.255Z,80.60
2018-09-26T13:24:28.330Z,80.40
2018-09-26T13:26:59.791Z,79.80
2018-09-26T13:29:31.472Z,80.60
2018-09-26T13:32:03.577Z,80.70
2018-09-26T13:34:36.320Z,80.90
2018-09-26T13:37:09.535Z,81.10
2018-09-26T13:39:41.061Z,80.70
2018-09-26T13:42:12.156Z,80.80
2018-09-26T13:44:43.306Z,80.90
2018-09-26T13:47:14.365Z,80.50
2018-09-26T13:49:45.339Z,83.10
2018-09-26T13:52:16.311Z,83.30
2018-09-26T13:54:47.167Z,83.50
2018-09-26T13:57:18.310Z,83.70
2018-09-26T13:59:49.508Z,84.00
2018-09-26T14:02:21.160Z,84.00
2018-09-26T14:04:52.272Z,83.90
2018-09-26T14:07:23.141Z,84.30
2018-09-26T14:09:54.342Z,83.80
2018-09-26T14:12:25.331Z,83.90
2018-09-26T14:14:56.270Z,83.90
2018-09-26T14:17:27.556Z,83.90
2018-09-26T14:19:58.682Z,84.20
2018-09-26T14:22:30.341Z,83.90
2018-09-26T14:25:01.499Z,84.00
2018-09-26T14:27:32.459Z,83.90
2018-09-26T14:30:03.733Z,84.00
2018-09-26T14:32:34.692Z,83.90
2018-09-26T14:35:06.048Z,83.70
2018-09-26T14:37:37.300Z,84.00
2018-09-26T14:40:08.981Z,84.00
2018-09-26T14:42:39.873Z,83.90
2018-09-26T14:45:10.882Z,83.90
2018-09-26T14:47:41.832Z,84.40
2018-09-26T14:50:13.074Z,84.10
2018-09-26T14:52:44.317Z,84.00
2018-09-26T14:55:15.505Z,84.20
2018-09-26T14:57:46.584Z,83.70
2018-09-26T15:00:17.841Z,84.10
2018-09-26T15:02:48.958Z,84.00
2018-09-26T15:05:20.268Z,84.10
2018-09-26T15:07:52.097Z,83.90
2018-09-26T15:10:23.777Z,83.90
2018-09-26T15:12:54.928Z,84.10
2018-09-26T15:15:26.154Z,83.80
2018-09-26T15:17:57.487Z,83.90
2018-09-26T15:20:28.718Z,83.60
2018-09-26T15:22:59.688Z,83.70
2018-09-26T15:25:30.578Z,83.60
2018-09-26T15:28:01.788Z,83.60
2018-09-26T15:30:33.400Z,83.90
2018-09-26T15:33:04.478Z,83.70
2018-09-26T15:35:35.604Z,83.70
2018-09-26T15:38:06.697Z,83.80
2018-09-26T15:40:37.568Z,83.80
2018-09-26T15:43:08.879Z,83.60
2018-09-26T15:45:40.020Z,83.80
2018-09-26T15:48:11.157Z,83.60
2018-09-26T15:50:43.230Z,83.80
2018-09-26T15:53:14.213Z,83.70
2018-09-26T15:55:45.500Z,83.70
2018-09-26T15:58:16.394Z,83.90
2018-09-26T16:00:47.511Z,83.80
2018-09-26T16:03:19.232Z,84.20
2018-09-26T16:05:50.547Z,84.00
2018-09-26T16:08:21.996Z,84.10
2018-09-26T16:10:52.878Z,84.10
2018-09-26T16:13:23.556Z,84.00
2018-09-26T16:15:54.892Z,83.90
2018-09-26T16:18:25.979Z,83.90
2018-09-26T16:20:57.080Z,84.10
2018-09-26T16:23:28.844Z,84.30
2018-09-26T16:25:59.942Z,84.30
2018-09-26T16:28:31.326Z,84.40
2018-09-26T16:31:02.561Z,84.20
2018-09-26T16:33:33.724Z,84.30
2018-09-26T16:36:04.699Z,84.30
2018-09-26T16:38:35.654Z,84.60
2018-09-26T16:41:06.829Z,85.20
2018-09-26T16:43:37.712Z,84.70
2018-09-26T16:46:08.777Z,84.60
2018-09-26T16:48:40.014Z,85.20
2018-09-26T16:51:11.362Z,84.60
2018-09-26T16:53:42.402Z,84.70
2018-09-26T16:56:13.589Z,84.40
2018-09-26T16:58:44.776Z,84.40
2018-09-26T17:01:15.691Z,84.60
2018-09-26T17:03:47.103Z,84.70
2018-09-26T17:06:18.266Z,84.50
2018-09-26T17:08:49.418Z,84.50
2018-09-26T17:11:20.844Z,84.20
2018-09-26T17:13:52.509Z,84.40
2018-09-26T17:16:23.634Z,84.30
2018-09-26T17:18:54.606Z,84.20
2018-09-26T17:21:25.707Z,84.30
2018-09-26T17:23:56.861Z,84.60
2018-09-26T17:26:27.823Z,84.60
2018-09-26T17:28:58.951Z,85.00
2018-09-26T17:31:30.113Z,84.80
2018-09-26T17:34:01.569Z,84.80
2018-09-26T17:36:32.770Z,84.80
2018-09-26T17:39:04.504Z,84.90
2018-09-26T17:41:35.492Z,84.90
2018-09-26T17:44:06.986Z,85.30
2018-09-26T17:46:38.285Z,85.10
2018-09-26T17:49:09.532Z,84.90
2018-09-26T17:51:40.659Z,85.10
2018-09-26T17:54:11.652Z,84.80
2018-09-26T17:56:42.979Z,84.70
2018-09-26T17:59:13.911Z,84.90
2018-09-26T18:01:45.250Z,84.70
2018-09-26T18:04:16.399Z,84.80
2018-09-26T18:06:47.696Z,85.10
2018-09-26T18:09:18.695Z,84.80
2018-09-26T18:11:49.950Z,85.10
2018-09-26T18:14:21.156Z,85.10
2018-09-26T18:16:52.225Z,85.10
2018-09-26T18:19:23.205Z,85.20
2018-09-26T18:21:54.202Z,85.20
2018-09-26T18:24:25.837Z,85.00
2018-09-26T18:26:56.680Z,85.80
2018-09-26T18:29:28.081Z,84.80
2018-09-26T18:31:59.347Z,85.00
2018-09-26T18:34:30.139Z,84.90
2018-09-26T18:37:01.532Z,85.20
2018-09-26T18:39:33.029Z,90.00
2018-09-26T18:42:04.380Z,90.30
2018-09-26T18:44:35.723Z,90.60
2018-09-26T18:47:08.441Z,90.30
2018-09-26T18:49:46.724Z,91.10
2018-09-26T18:52:24.424Z,90.40
2018-09-26T18:54:58.721Z,89.00
2018-09-26T18:57:29.774Z,88.20
2018-09-26T19:00:00.780Z,87.90
2018-09-26T19:02:32.103Z,87.80
2018-09-26T19:05:03.218Z,87.80
2018-09-26T19:07:34.219Z,87.50
2018-09-26T19:10:05.638Z,87.40
2018-09-26T19:12:37.202Z,87.30
2018-09-26T19:15:08.681Z,87.00
2018-09-26T19:17:41.442Z,86.70
2018-09-26T19:20:13.156Z,86.60
2018-09-26T19:22:45.944Z,86.90
2018-09-26T19:25:17.357Z,86.80
2018-09-26T19:27:48.300Z,86.60
2018-09-26T19:30:20.650Z,86.60
2018-09-26T19:32:51.823Z,86.60
2018-09-26T19:35:23.326Z,86.50
2018-09-26T19:37:54.451Z,86.70
2018-09-26T19:40:25.491Z,86.60
2018-09-26T19:42:56.677Z,86.40
2018-09-26T19:45:28.165Z,86.70
2018-09-26T19:47:59.597Z,87.00
2018-09-26T19:50:30.819Z,86.70
2018-09-26T19:53:02.716Z,86.50
2018-09-26T19:55:33.962Z,86.10
2018-09-26T19:58:05.210Z,86.40
2018-09-26T20:00:36.275Z,86.40
2018-09-26T20:03:07.434Z,86.60
2018-09-26T20:05:38.811Z,87.10
2018-09-26T20:08:09.897Z,86.50
2018-09-26T20:10:40.924Z,86.40
2018-09-26T20:13:11.795Z,86.40
2018-09-26T20:15:44.714Z,86.60
2018-09-26T20:18:15.638Z,86.50
2018-09-26T20:20:46.666Z,86.50
2018-09-26T20:23:17.795Z,86.30
2018-09-26T20:25:49.073Z,86.40
2018-09-26T20:28:19.979Z,86.30
2018-09-26T20:30:51.602Z,86.10
2018-09-26T20:33:22.841Z,86.40
2018-09-26T20:35:53.924Z,86.30
2018-09-26T20:38:24.961Z,86.30
2018-09-26T20:40:55.891Z,86.20
2018-09-26T20:43:27.872Z,86.20
2018-09-26T20:45:58.854Z,86.90
2018-09-26T20:48:29.907Z,86.90
2018-09-26T20:51:00.662Z,86.60
2018-09-26T20:53:31.663Z,86.60
2018-09-26T20:56:02.744Z,86.70
2018-09-26T20:58:33.651Z,86.60
2018-09-26T21:01:04.624Z,86.30
2018-09-26T21:03:35.655Z,86.40
2018-09-26T21:06:07.097Z,86.50
2018-09-26T21:08:38.282Z,86.50
2018-09-26T21:11:09.378Z,86.40
2018-09-26T21:13:40.322Z,86.70
2018-09-26T21:16:11.304Z,86.50
2018-09-26T21:18:42.221Z,86.30
2018-09-26T21:21:13.191Z,86.30
2018-09-26T21:23:44.269Z,86.80
2018-09-26T21:26:15.219Z,86.50
2018-09-26T21:28:45.969Z,86.80
2018-09-26T21:31:17.184Z,87.10
2018-09-26T21:33:48.284Z,86.50
2018-09-26T21:36:19.607Z,86.60
2018-09-26T21:38:50.588Z,86.90
2018-09-26T21:41:21.637Z,86.70
2018-09-26T21:43:52.806Z,86.40
2018-09-26T21:46:23.980Z,86.70
2018-09-26T21:48:55.805Z,86.60
2018-09-26T21:51:27.051Z,86.70
2018-09-26T21:53:58.010Z,87.00
2018-09-26T21:56:28.862Z,86.90
2018-09-26T21:58:59.701Z,87.00
2018-09-26T22:01:31.931Z,86.90
2018-09-26T22:04:03.006Z,87.00
2018-09-26T22:06:34.035Z,86.60
2018-09-26T22:09:06.736Z,86.50
2018-09-26T22:11:37.686Z,86.70
2018-09-26T22:14:08.651Z,87.30
2018-09-26T22:16:39.742Z,86.90
2018-09-26T22:19:10.667Z,86.60
2018-09-26T22:21:41.612Z,86.50
2018-09-26T22:24:12.537Z,86.40
2018-09-26T22:26:43.837Z,87.10
2018-09-26T22:29:15.121Z,86.40
2018-09-26T22:31:46.020Z,86.40
2018-09-26T22:34:17.007Z,86.60
2018-09-26T22:36:48.061Z,86.30
2018-09-26T22:39:19.256Z,86.90
2018-09-26T22:41:50.179Z,86.20
2018-09-26T22:44:21.063Z,86.80
2018-09-26T22:46:52.124Z,86.60
2018-09-26T22:49:23.382Z,86.70
2018-09-26T22:51:54.347Z,86.60
2018-09-26T22:54:25.071Z,86.80
2018-09-26T22:56:55.930Z,86.70
2018-09-26T22:59:26.945Z,86.60
2018-09-26T23:01:57.849Z,86.60
2018-09-26T23:04:28.827Z,86.60
2018-09-26T23:06:59.896Z,87.30
2018-09-26T23:09:30.859Z,86.80
2018-09-26T23:12:02.164Z,86.40
2018-09-26T23:14:33.171Z,86.40
2018-09-26T23:17:04.165Z,86.60
2018-09-26T23:19:34.955Z,86.60
2018-09-26T23:22:05.831Z,86.90
2018-09-26T23:24:36.836Z,86.60
2018-09-26T23:27:07.667Z,86.10
2018-09-26T23:29:38.382Z,86.40
2018-09-26T23:32:09.295Z,86.60
2018-09-26T23:34:41.027Z,86.40
2018-09-26T23:37:12.033Z,86.80
2018-09-26T23:39:42.928Z,86.60
2018-09-26T23:42:13.948Z,86.50
2018-09-26T23:44:44.767Z,87.10
2018-09-26T23:47:15.753Z,86.60
2018-09-26T23:49:46.890Z,86.50
2018-09-26T23:52:17.851Z,86.40
2018-09-26T23:54:48.838Z,86.60
2018-09-26T23:57:19.931Z,86.70
2018-09-26T23:59:50.911Z,86.20
